Pagina principale
METAR-TAF:

METAR-TAF

Aeroporti :

Aeroporto di Enfida-Hammamet

Hammamet, Tunisia

latitudine: 36-04-34N, longitudine: 10-26-19E, altezza: 6 m

Osservazione

Il bollettino è stato emesso 33 minuti fa, alle 23:30 UTC
Vento 3 kt da nord
Temperature 21°C
Umidità 78%
Pressione 1016 hPa
Visibilità 10 km o più
nessuna nube inferiore a 1500 m e nessun cumulonembo

METAR: DTNH 142330Z 01003KT CAVOK 21/17 Q1016 NOSIG

Ora: 01:03 (00:03 UTC)

Previsione

Il bollettino è stato emesso 1 ora e 3 minuti fa, alle 23:00 UTC
Previsione valida dal 15 alle 00 UTC al 15 alle 24 UTC
Vento 5 kt da nord
Visibilità 10 km o più
nessuna nube inferiore a 1500 m e nessun cumulonembo

TAF: DTNH 142300Z 1500/1524 01005KT CAVOK

Osservazioni e previsioni meteorologiche di più di 4000 aeroporti (messaggi METAR e TAF).

Le stazioni disponibili sono rappresentate dai dischi gialli e rossi sulla carta.

Puntare il mouse per vedere il nome della stazione.

Clicca sopra per visualizzare le osservazioni e previsioni meteorologiche.

Per cambiare la mappa : fare clic sui pulsanti verdi con una croce nera per ingrandire, il pulsante verde con un trattino per diminuire, o sulla freccia verde per le mappe adiacenti.


METAR-TAF: